createdAt,value
2022-08-17T00:00:42.663Z,4.35
2022-08-17T00:03:10.986Z,4.38
2022-08-17T00:05:46.071Z,4.32
2022-08-17T00:08:15.925Z,3.92
2022-08-17T00:10:46.709Z,4.22
2022-08-17T00:13:21.415Z,4.03
2022-08-17T00:15:50.092Z,4.20
2022-08-17T00:19:01.476Z,4.00
2022-08-17T00:21:10.928Z,3.92
2022-08-17T00:23:47.771Z,4.00
2022-08-17T00:26:43.489Z,4.18
2022-08-17T00:29:08.323Z,4.70
2022-08-17T00:31:37.362Z,3.97
2022-08-17T00:34:08.797Z,3.83
2022-08-17T00:36:38.597Z,4.28
2022-08-17T00:39:07.122Z,4.18
2022-08-17T00:41:35.933Z,4.10
2022-08-17T00:44:07.862Z,4.40
2022-08-17T00:46:39.315Z,4.10
2022-08-17T00:49:08.563Z,4.55
2022-08-17T00:51:43.387Z,4.82
2022-08-17T00:54:15.135Z,4.53
2022-08-17T00:56:48.555Z,4.60
2022-08-17T00:59:20.652Z,4.30
2022-08-17T01:01:50.459Z,4.03
2022-08-17T01:04:24.028Z,4.35
2022-08-17T01:06:56.727Z,4.88
2022-08-17T01:09:24.977Z,4.25
2022-08-17T01:11:53.448Z,3.83
2022-08-17T01:14:22.764Z,4.25
2022-08-17T01:16:54.158Z,4.20
2022-08-17T01:19:26.009Z,3.65
2022-08-17T01:22:02.249Z,4.50
2022-08-17T01:24:33.846Z,4.18
2022-08-17T01:27:02.026Z,4.32
2022-08-17T01:29:32.961Z,5.13
2022-08-17T01:32:04.979Z,4.85
2022-08-17T01:34:42.613Z,4.68
2022-08-17T01:37:12.199Z,4.82
2022-08-17T01:39:44.983Z,4.22
2022-08-17T01:42:21.965Z,4.60
2022-08-17T01:44:54.432Z,5.15
2022-08-17T01:47:22.612Z,4.65
2022-08-17T01:49:52.423Z,4.68
2022-08-17T01:52:22.255Z,4.25
2022-08-17T01:54:53.507Z,4.07
2022-08-17T01:57:21.538Z,4.38
2022-08-17T01:59:49.943Z,4.88
2022-08-17T02:02:30.616Z,4.55
2022-08-17T02:05:00.008Z,4.55
2022-08-17T02:07:28.278Z,4.75
2022-08-17T02:09:58.574Z,4.80
2022-08-17T02:12:39.510Z,4.90
2022-08-17T02:15:09.994Z,4.78
2022-08-17T02:17:40.555Z,5.72
2022-08-17T02:20:09.938Z,5.43
2022-08-17T02:22:40.236Z,4.63
2022-08-17T02:25:13.135Z,4.57
2022-08-17T02:27:41.357Z,5.13
2022-08-17T02:30:59.350Z,5.10
2022-08-17T02:33:04.341Z,4.78
2022-08-17T02:35:37.496Z,4.65
2022-08-17T02:38:06.259Z,5.32
2022-08-17T02:40:37.366Z,4.53
2022-08-17T02:43:05.962Z,4.20
2022-08-17T02:45:34.143Z,4.60
2022-08-17T02:48:02.323Z,4.40
2022-08-17T02:50:30.707Z,4.82
2022-08-17T02:53:01.684Z,4.10
2022-08-17T02:55:33.803Z,4.50
2022-08-17T02:58:03.952Z,4.60
2022-08-17T03:00:35.014Z,4.38
2022-08-17T03:03:04.153Z,4.80
2022-08-17T03:05:35.044Z,4.28
2022-08-17T03:08:04.067Z,5.25
2022-08-17T03:10:32.478Z,4.28
2022-08-17T03:13:00.682Z,4.57
2022-08-17T03:15:32.600Z,4.63
2022-08-17T03:18:01.799Z,4.70
2022-08-17T03:20:32.623Z,4.47
2022-08-17T03:23:01.751Z,4.03
2022-08-17T03:25:39.229Z,4.75
2022-08-17T03:28:08.472Z,4.15
2022-08-17T03:30:38.312Z,4.25
2022-08-17T03:33:10.055Z,4.57
2022-08-17T03:35:41.414Z,4.43
2022-08-17T03:38:10.959Z,4.28
2022-08-17T03:40:57.714Z,4.50
2022-08-17T03:43:29.469Z,5.07
2022-08-17T03:46:27.899Z,5.22
2022-08-17T03:49:20.517Z,5.25
2022-08-17T03:52:05.899Z,4.68
2022-08-17T03:54:51.234Z,5.35
2022-08-17T03:57:19.684Z,5.30
2022-08-17T03:59:48.970Z,4.97
2022-08-17T04:02:21.117Z,4.18
2022-08-17T04:04:51.427Z,4.60
2022-08-17T04:07:19.952Z,4.70
2022-08-17T04:09:48.522Z,4.53
2022-08-17T04:12:17.299Z,5.00
2022-08-17T04:14:52.977Z,4.88
2022-08-17T04:17:26.965Z,4.55
2022-08-17T04:19:56.424Z,4.63
2022-08-17T04:22:31.994Z,5.60
2022-08-17T04:25:08.914Z,4.70
2022-08-17T04:27:37.161Z,4.95
2022-08-17T04:30:07.974Z,4.80
2022-08-17T04:33:05.087Z,4.47
2022-08-17T04:35:47.226Z,4.55
2022-08-17T04:38:18.218Z,4.93
2022-08-17T04:41:04.353Z,4.53
2022-08-17T04:43:33.825Z,4.93
2022-08-17T04:46:06.076Z,5.20
2022-08-17T04:48:37.870Z,5.78
2022-08-17T04:51:13.769Z,5.03
2022-08-17T04:53:44.210Z,4.93
2022-08-17T04:56:16.092Z,4.75
2022-08-17T04:58:46.963Z,4.68
2022-08-17T05:01:15.713Z,4.95
2022-08-17T05:03:45.914Z,4.63
2022-08-17T05:06:14.211Z,4.78
2022-08-17T05:08:42.742Z,5.13
2022-08-17T05:11:11.137Z,4.97
2022-08-17T05:13:39.412Z,4.43
2022-08-17T05:16:09.180Z,6.63
2022-08-17T05:18:38.955Z,6.20
2022-08-17T05:21:09.510Z,5.47
2022-08-17T05:23:42.893Z,5.65
2022-08-17T05:26:25.712Z,4.43
2022-08-17T05:28:57.198Z,4.70
2022-08-17T05:31:28.588Z,4.25
2022-08-17T05:33:57.336Z,4.20
2022-08-17T05:36:41.764Z,6.07
2022-08-17T05:39:16.614Z,5.05
2022-08-17T05:41:47.111Z,5.28
2022-08-17T05:44:15.319Z,5.05
2022-08-17T05:46:48.903Z,4.88
2022-08-17T05:49:28.335Z,4.88
2022-08-17T05:52:20.025Z,4.60
2022-08-17T05:55:06.171Z,4.88
2022-08-17T06:00:30.368Z,5.80
2022-08-17T06:03:19.772Z,4.40
2022-08-17T06:06:04.427Z,5.18
2022-08-17T06:08:40.919Z,4.50
2022-08-17T06:11:20.550Z,4.03
2022-08-17T06:14:18.145Z,4.38
2022-08-17T06:16:50.607Z,4.80
2022-08-17T06:19:23.997Z,4.35
2022-08-17T06:21:55.614Z,3.97
2022-08-17T06:24:30.060Z,4.20
2022-08-17T06:27:03.042Z,4.20
2022-08-17T06:29:39.983Z,3.95
2022-08-17T06:32:12.789Z,4.10
2022-08-17T06:34:43.219Z,4.10
2022-08-17T06:37:31.748Z,4.35
2022-08-17T06:40:20.943Z,3.70
2022-08-17T06:43:06.734Z,3.90
2022-08-17T06:45:40.432Z,3.70
2022-08-17T06:48:13.944Z,3.63
2022-08-17T06:50:49.118Z,3.70
2022-08-17T06:53:23.645Z,4.32
2022-08-17T06:55:59.956Z,4.05
2022-08-17T06:58:31.578Z,3.90
2022-08-17T07:01:07.745Z,4.20
2022-08-17T07:03:40.940Z,4.00
2022-08-17T07:06:18.197Z,3.78
2022-08-17T07:08:54.165Z,4.20
2022-08-17T07:11:31.720Z,4.38
2022-08-17T07:14:17.001Z,3.97
2022-08-17T07:16:48.552Z,3.47
2022-08-17T07:19:18.258Z,4.00
2022-08-17T07:21:55.192Z,3.67
2022-08-17T07:24:35.707Z,4.18
2022-08-17T07:27:12.642Z,4.03
2022-08-17T07:29:49.541Z,4.55
2022-08-17T07:32:23.411Z,3.65
2022-08-17T07:35:03.142Z,4.00
2022-08-17T07:37:34.535Z,3.92
2022-08-17T07:40:24.843Z,3.78
2022-08-17T07:43:18.829Z,4.28
2022-08-17T07:46:22.705Z,4.18
2022-08-17T07:48:54.142Z,4.50
2022-08-17T07:51:26.655Z,3.67
2022-08-17T07:54:13.205Z,4.18
2022-08-17T07:56:45.805Z,3.83
2022-08-17T07:59:23.042Z,4.00
2022-08-17T08:02:06.315Z,3.85
2022-08-17T08:07:29.571Z,3.95
2022-08-17T08:10:09.491Z,3.78
2022-08-17T08:12:40.496Z,3.83
2022-08-17T08:15:19.170Z,3.80
2022-08-17T08:17:50.682Z,3.55
2022-08-17T08:20:37.750Z,3.65
2022-08-17T08:23:28.655Z,3.65
2022-08-17T08:26:18.384Z,3.83
2022-08-17T08:28:54.624Z,3.67
2022-08-17T08:31:31.695Z,3.60
2022-08-17T08:34:58.787Z,3.88
2022-08-17T08:37:16.479Z,3.85
2022-08-17T08:39:58.132Z,3.90
2022-08-17T08:42:34.906Z,3.47
2022-08-17T08:45:09.598Z,3.60
2022-08-17T08:47:58.260Z,3.58
2022-08-17T08:53:18.967Z,3.58
2022-08-17T08:55:53.563Z,3.03
2022-08-17T08:58:41.830Z,3.13
2022-08-17T09:01:29.435Z,2.83
2022-08-17T09:04:24.601Z,3.42
2022-08-17T09:07:06.180Z,2.88
2022-08-17T09:09:43.646Z,3.00
2022-08-17T09:12:22.470Z,3.45
2022-08-17T09:14:59.577Z,3.40
2022-08-17T09:17:40.192Z,3.28
2022-08-17T09:20:27.658Z,3.22
2022-08-17T09:23:03.380Z,3.00
2022-08-17T09:25:36.267Z,3.30
2022-08-17T09:28:07.955Z,3.30
2022-08-17T09:30:42.451Z,3.55
2022-08-17T09:33:12.653Z,3.47
2022-08-17T09:35:46.456Z,2.97
2022-08-17T09:38:25.072Z,3.08
2022-08-17T09:41:07.570Z,3.58
2022-08-17T09:43:45.951Z,3.35
2022-08-17T09:46:27.524Z,3.08
2022-08-17T09:49:03.321Z,3.15
2022-08-17T09:51:37.520Z,3.00
2022-08-17T09:54:38.077Z,3.35
2022-08-17T09:57:29.671Z,2.88
2022-08-17T10:00:18.720Z,2.75
2022-08-17T10:03:04.567Z,2.90
2022-08-17T10:05:46.512Z,2.88
2022-08-17T10:08:27.697Z,3.08
2022-08-17T10:11:08.042Z,3.28
2022-08-17T10:13:53.393Z,3.20
2022-08-17T10:16:29.139Z,3.10
2022-08-17T10:19:16.521Z,3.15
2022-08-17T10:22:14.971Z,2.80
2022-08-17T10:25:20.975Z,2.83
2022-08-17T10:27:56.153Z,3.50
2022-08-17T10:30:27.867Z,3.63
2022-08-17T10:32:59.314Z,2.83
2022-08-17T10:35:36.462Z,3.40
2022-08-17T10:38:32.144Z,3.00
2022-08-17T10:41:07.766Z,2.90
2022-08-17T10:43:54.430Z,2.63
2022-08-17T10:46:52.200Z,2.40
2022-08-17T10:49:35.867Z,3.10
2022-08-17T10:52:28.016Z,2.33
2022-08-17T10:55:14.723Z,2.47
2022-08-17T10:57:46.776Z,2.58
2022-08-17T11:00:59.350Z,2.55
2022-08-17T11:03:27.925Z,2.40
2022-08-17T11:06:03.545Z,2.45
2022-08-17T11:09:03.569Z,2.58
2022-08-17T11:12:06.710Z,2.40
2022-08-17T11:14:50.707Z,2.40
2022-08-17T11:17:41.543Z,2.20
2022-08-17T11:20:38.122Z,2.35
2022-08-17T11:23:32.996Z,2.60
2022-08-17T11:26:08.674Z,2.63
2022-08-17T11:28:52.612Z,2.60
2022-08-17T11:31:39.905Z,2.10
2022-08-17T11:34:18.569Z,2.20
2022-08-17T11:37:07.709Z,2.45
2022-08-17T11:39:54.807Z,2.75
2022-08-17T11:42:36.369Z,2.60
2022-08-17T11:45:32.521Z,2.50
2022-08-17T11:48:28.766Z,2.10
2022-08-17T11:51:18.866Z,2.10
2022-08-17T11:54:31.566Z,2.10
2022-08-17T11:56:55.377Z,1.98
2022-08-17T11:59:55.326Z,2.10
2022-08-17T12:02:35.263Z,2.22
2022-08-17T12:05:27.440Z,2.13
2022-08-17T12:08:08.022Z,1.98
2022-08-17T12:10:39.708Z,2.25
2022-08-17T12:13:15.325Z,2.08
2022-08-17T12:15:52.918Z,1.80
2022-08-17T12:18:22.907Z,1.80
2022-08-17T12:21:27.900Z,1.98
2022-08-17T12:24:02.039Z,2.28
2022-08-17T12:26:33.875Z,1.80
2022-08-17T12:29:05.466Z,2.38
2022-08-17T12:31:37.999Z,1.85
2022-08-17T12:34:06.377Z,1.90
2022-08-17T12:36:36.836Z,1.98
2022-08-17T12:39:14.405Z,1.83
2022-08-17T12:41:45.444Z,2.00
2022-08-17T12:44:16.315Z,2.50
2022-08-17T12:46:54.599Z,1.88
2022-08-17T12:49:35.667Z,1.75
2022-08-17T12:52:13.594Z,1.80
2022-08-17T12:54:47.840Z,1.73
2022-08-17T12:57:18.729Z,2.15
2022-08-17T12:59:53.353Z,2.72
2022-08-17T13:02:39.297Z,1.83
2022-08-17T13:05:09.759Z,2.00
2022-08-17T13:07:43.775Z,1.73
2022-08-17T13:10:18.643Z,1.80
2022-08-17T13:12:49.682Z,1.90
2022-08-17T13:15:31.768Z,1.75
2022-08-17T13:18:05.132Z,1.70
2022-08-17T13:20:36.425Z,1.80
2022-08-17T13:23:12.352Z,1.80
2022-08-17T13:25:41.175Z,1.73
2022-08-17T13:28:35.682Z,2.08
2022-08-17T13:31:33.019Z,2.28
2022-08-17T13:34:16.287Z,1.90
2022-08-17T13:36:48.856Z,2.10
2022-08-17T13:39:23.325Z,2.00
2022-08-17T13:41:53.888Z,2.42
2022-08-17T13:44:33.445Z,2.10
2022-08-17T13:47:02.536Z,2.30
2022-08-17T13:49:41.983Z,2.38
2022-08-17T13:52:37.998Z,2.47
2022-08-17T13:55:17.029Z,2.13
2022-08-17T13:57:47.780Z,2.40
2022-08-17T14:00:22.100Z,1.92
2022-08-17T14:02:50.456Z,2.10
2022-08-17T14:05:18.709Z,2.40
2022-08-17T14:07:47.258Z,2.25
2022-08-17T14:10:19.035Z,1.80
2022-08-17T14:12:47.809Z,2.10
2022-08-17T14:15:20.624Z,2.10
2022-08-17T14:17:50.503Z,2.10
2022-08-17T14:20:21.489Z,1.98
2022-08-17T14:22:56.794Z,2.10
2022-08-17T14:25:28.976Z,2.00
2022-08-17T14:27:58.758Z,2.40
2022-08-17T14:30:29.833Z,1.80
2022-08-17T14:32:59.376Z,1.98
2022-08-17T14:35:29.399Z,2.13
2022-08-17T14:37:58.318Z,1.92
2022-08-17T14:40:28.225Z,2.33
2022-08-17T14:42:57.958Z,1.88
2022-08-17T14:45:29.570Z,1.98
2022-08-17T14:48:05.867Z,1.73
2022-08-17T14:50:35.728Z,1.90
2022-08-17T14:53:05.461Z,1.98
2022-08-17T14:55:36.889Z,1.77
2022-08-17T14:58:05.230Z,1.90
2022-08-17T15:00:33.665Z,1.83
2022-08-17T15:03:03.351Z,1.77
2022-08-17T15:05:36.791Z,1.75
2022-08-17T15:08:08.575Z,1.50
2022-08-17T15:10:39.188Z,1.80
2022-08-17T15:13:16.361Z,1.42
2022-08-17T15:15:44.774Z,1.75
2022-08-17T15:18:13.073Z,2.08
2022-08-17T15:20:44.540Z,1.92
2022-08-17T15:23:14.664Z,1.60
2022-08-17T15:25:44.406Z,1.83
2022-08-17T15:28:18.637Z,1.80
2022-08-17T15:30:46.882Z,1.70
2022-08-17T15:33:16.318Z,2.20
2022-08-17T15:35:45.243Z,1.85
2022-08-17T15:38:14.494Z,1.92
2022-08-17T15:40:46.501Z,2.22
2022-08-17T15:43:16.695Z,2.08
2022-08-17T15:45:45.144Z,1.77
2022-08-17T15:48:41.365Z,1.90
2022-08-17T15:51:11.687Z,1.92
2022-08-17T15:53:41.037Z,1.70
2022-08-17T15:56:13.743Z,1.85
2022-08-17T15:58:43.716Z,2.00
2022-08-17T16:01:14.985Z,1.90
2022-08-17T16:04:06.569Z,1.90
2022-08-17T16:06:35.709Z,1.83
2022-08-17T16:09:03.989Z,1.63
2022-08-17T16:11:33.586Z,1.80
2022-08-17T16:14:01.834Z,1.90
2022-08-17T16:16:31.494Z,1.90
2022-08-17T16:18:59.770Z,1.90
2022-08-17T16:21:31.108Z,1.60
2022-08-17T16:24:13.388Z,1.58
2022-08-17T16:26:46.582Z,1.67
2022-08-17T16:29:14.839Z,2.00
2022-08-17T16:31:43.350Z,2.45
2022-08-17T16:34:17.387Z,1.80
2022-08-17T16:36:54.955Z,1.90
2022-08-17T16:39:27.626Z,1.70
2022-08-17T16:41:58.165Z,1.90
2022-08-17T16:44:31.212Z,3.03
2022-08-17T16:47:00.812Z,1.60
2022-08-17T16:49:35.969Z,1.75
2022-08-17T16:52:11.307Z,1.63
2022-08-17T16:54:43.829Z,2.00
2022-08-17T16:57:17.509Z,1.70
2022-08-17T16:59:50.309Z,1.70
2022-08-17T17:02:28.723Z,1.60
2022-08-17T17:05:28.848Z,1.90
2022-08-17T17:08:09.612Z,1.65
2022-08-17T17:10:42.833Z,1.85
2022-08-17T17:13:15.432Z,1.80
2022-08-17T17:15:54.977Z,1.80
2022-08-17T17:18:30.308Z,1.80
2022-08-17T17:21:00.470Z,1.83
2022-08-17T17:23:39.336Z,1.70
2022-08-17T17:26:19.398Z,2.15
2022-08-17T17:29:03.204Z,1.90
2022-08-17T17:31:40.655Z,1.92
2022-08-17T17:34:13.831Z,2.05
2022-08-17T17:36:47.005Z,2.35
2022-08-17T17:39:18.986Z,1.90
2022-08-17T17:41:52.470Z,1.90
2022-08-17T17:44:28.728Z,1.92
2022-08-17T17:47:01.893Z,2.22
2022-08-17T17:49:33.896Z,1.92
2022-08-17T17:52:15.573Z,2.00
2022-08-17T17:55:03.606Z,2.05
2022-08-17T17:57:42.375Z,2.22
2022-08-17T18:00:15.955Z,2.45
2022-08-17T18:02:56.643Z,2.10
2022-08-17T18:05:35.922Z,2.10
2022-08-17T18:08:13.734Z,2.55
2022-08-17T18:10:49.677Z,2.47
2022-08-17T18:13:26.631Z,2.63
2022-08-17T18:16:00.819Z,2.75
2022-08-17T18:18:38.665Z,3.05
2022-08-17T18:21:16.810Z,3.03
2022-08-17T18:23:56.693Z,2.67
2022-08-17T18:26:46.911Z,2.10
2022-08-17T18:29:23.664Z,2.97
2022-08-17T18:32:15.090Z,3.15
2022-08-17T18:34:47.544Z,2.53
2022-08-17T18:37:32.979Z,3.50
2022-08-17T18:40:24.545Z,2.60
2022-08-17T18:43:02.957Z,2.55
2022-08-17T18:45:38.589Z,2.10
2022-08-17T18:48:24.866Z,2.30
2022-08-17T18:50:54.668Z,2.47
2022-08-17T18:53:33.315Z,2.70
2022-08-17T18:56:30.515Z,2.40
2022-08-17T18:59:13.217Z,2.78
2022-08-17T19:01:54.423Z,2.42
2022-08-17T19:04:58.790Z,3.28
2022-08-17T19:07:31.193Z,2.85
2022-08-17T19:10:08.156Z,2.28
2022-08-17T19:12:42.061Z,2.83
2022-08-17T19:15:13.663Z,2.70
2022-08-17T19:17:48.546Z,2.10
2022-08-17T19:20:25.813Z,2.33
2022-08-17T19:23:08.176Z,2.40
2022-08-17T19:25:41.714Z,2.47
2022-08-17T19:28:21.540Z,2.33
2022-08-17T19:30:52.078Z,2.60
2022-08-17T19:33:20.838Z,2.42
2022-08-17T19:36:02.084Z,2.20
2022-08-17T19:38:45.917Z,2.40
2022-08-17T19:41:25.209Z,3.15
2022-08-17T19:44:10.483Z,2.45
2022-08-17T19:46:49.825Z,2.63
2022-08-17T19:49:33.298Z,3.08
2022-08-17T19:52:24.124Z,3.53
2022-08-17T19:54:59.568Z,3.70
2022-08-17T19:57:41.810Z,4.22
2022-08-17T20:00:13.447Z,4.15
2022-08-17T20:02:51.300Z,4.20
2022-08-17T20:05:23.051Z,4.07
2022-08-17T20:07:58.049Z,4.57
2022-08-17T20:10:48.149Z,4.60
2022-08-17T20:13:33.172Z,4.55
2022-08-17T20:16:03.157Z,4.38
2022-08-17T20:18:38.295Z,4.10
2022-08-17T20:21:20.395Z,4.13
2022-08-17T20:23:54.674Z,4.00
2022-08-17T20:26:27.406Z,4.43
2022-08-17T20:29:37.251Z,4.35
2022-08-17T20:32:23.775Z,4.32
2022-08-17T20:35:06.953Z,4.18
2022-08-17T20:37:36.859Z,4.28
2022-08-17T20:40:36.542Z,4.80
2022-08-17T20:43:46.762Z,4.95
2022-08-17T20:46:47.998Z,4.30
2022-08-17T20:49:28.082Z,4.45
2022-08-17T20:52:02.834Z,3.92
2022-08-17T20:54:46.126Z,4.50
2022-08-17T20:57:50.952Z,3.55
2022-08-17T21:00:50.318Z,4.65
2022-08-17T21:03:50.287Z,2.80
2022-08-17T21:06:23.360Z,3.05
2022-08-17T21:08:57.713Z,2.70
2022-08-17T21:12:02.945Z,2.77
2022-08-17T21:14:45.294Z,2.60
2022-08-17T21:17:36.734Z,2.65
2022-08-17T21:20:12.086Z,3.00
2022-08-17T21:22:52.983Z,3.17
2022-08-17T21:25:49.182Z,4.05
2022-08-17T21:31:01.154Z,4.10
2022-08-17T21:33:33.671Z,3.42
2022-08-17T21:36:24.989Z,3.70
2022-08-17T21:39:09.129Z,3.80
2022-08-17T21:41:52.873Z,4.07
2022-08-17T21:44:30.978Z,3.90
2022-08-17T21:47:16.687Z,4.30
2022-08-17T21:49:46.497Z,3.30
2022-08-17T21:52:17.568Z,3.40
2022-08-17T21:54:54.468Z,3.42
2022-08-17T21:57:28.044Z,3.10
2022-08-17T21:59:58.780Z,3.25
2022-08-17T22:02:30.726Z,3.88
2022-08-17T22:05:02.923Z,3.63
2022-08-17T22:07:41.101Z,3.33
2022-08-17T22:10:31.175Z,3.45
2022-08-17T22:13:16.870Z,3.03
2022-08-17T22:15:48.257Z,3.72
2022-08-17T22:18:20.967Z,3.08
2022-08-17T22:20:52.728Z,3.58
2022-08-17T22:23:44.920Z,3.10
2022-08-17T22:26:15.600Z,3.22
2022-08-17T22:28:46.799Z,3.03
2022-08-17T22:31:17.338Z,3.80
2022-08-17T22:33:49.050Z,2.95
2022-08-17T22:36:29.221Z,2.75
2022-08-17T22:38:59.417Z,3.17
2022-08-17T22:41:39.275Z,3.08
2022-08-17T22:44:27.255Z,2.92
2022-08-17T22:47:00.176Z,2.40
2022-08-17T22:49:32.474Z,3.17
2022-08-17T22:52:07.926Z,3.10
2022-08-17T22:57:52.661Z,3.83
2022-08-17T23:00:34.622Z,3.40
2022-08-17T23:03:10.431Z,3.00
2022-08-17T23:05:40.926Z,3.53
2022-08-17T23:08:12.879Z,3.55
2022-08-17T23:10:45.457Z,3.60
2022-08-17T23:13:14.030Z,3.17
2022-08-17T23:15:43.112Z,3.13
2022-08-17T23:18:11.519Z,2.65
2022-08-17T23:20:41.955Z,3.50
2022-08-17T23:23:13.949Z,3.13
2022-08-17T23:25:44.566Z,3.92
2022-08-17T23:28:13.617Z,3.50
2022-08-17T23:30:44.742Z,3.25
2022-08-17T23:33:19.638Z,3.47
2022-08-17T23:35:47.917Z,3.33
2022-08-17T23:38:17.569Z,3.30
2022-08-17T23:40:45.972Z,3.25
2022-08-17T23:43:25.301Z,3.25
2022-08-17T23:45:57.603Z,3.05
2022-08-17T23:48:35.134Z,3.88
2022-08-17T23:51:09.685Z,3.50
2022-08-17T23:53:44.138Z,3.58
2022-08-17T23:56:12.378Z,3.50
2022-08-17T23:58:42.363Z,3.90
